sensor_id;sensor_type;location;lat;lon;timestamp;P1;durP1;ratioP1;P2;durP2;ratioP2
70953;SDS011;58618;47.490;8.736;2024-03-17T00:02:38;4.57;;;2.10;;
70953;SDS011;58618;47.490;8.736;2024-03-17T00:05:26;7.53;;;1.70;;
70953;SDS011;58618;47.490;8.736;2024-03-17T00:08:12;2.75;;;1.83;;
70953;SDS011;58618;47.490;8.736;2024-03-17T00:11:00;3.40;;;1.93;;
70953;SDS011;58618;47.490;8.736;2024-03-17T00:13:47;5.47;;;2.05;;
70953;SDS011;58618;47.490;8.736;2024-03-17T00:16:35;6.35;;;1.90;;
70953;SDS011;58618;47.490;8.736;2024-03-17T00:19:23;3.85;;;1.88;;
70953;SDS011;58618;47.490;8.736;2024-03-17T00:22:10;4.57;;;1.90;;
70953;SDS011;58618;47.490;8.736;2024-03-17T00:24:59;5.40;;;1.87;;
70953;SDS011;58618;47.490;8.736;2024-03-17T00:27:46;2.72;;;1.90;;
70953;SDS011;58618;47.490;8.736;2024-03-17T00:30:34;4.10;;;1.80;;
70953;SDS011;58618;47.490;8.736;2024-03-17T00:33:23;5.22;;;2.00;;
70953;SDS011;58618;47.490;8.736;2024-03-17T00:36:10;6.57;;;2.20;;
70953;SDS011;58618;47.490;8.736;2024-03-17T00:38:57;4.93;;;1.63;;
70953;SDS011;58618;47.490;8.736;2024-03-17T00:41:43;4.20;;;1.60;;
70953;SDS011;58618;47.490;8.736;2024-03-17T00:44:31;4.47;;;1.70;;
70953;SDS011;58618;47.490;8.736;2024-03-17T00:47:17;4.57;;;1.75;;
70953;SDS011;58618;47.490;8.736;2024-03-17T00:50:06;5.82;;;2.00;;
70953;SDS011;58618;47.490;8.736;2024-03-17T00:52:54;4.83;;;2.03;;
70953;SDS011;58618;47.490;8.736;2024-03-17T00:55:41;4.13;;;1.98;;
70953;SDS011;58618;47.490;8.736;2024-03-17T00:58:29;3.90;;;1.80;;
70953;SDS011;58618;47.490;8.736;2024-03-17T01:01:16;3.38;;;1.50;;
70953;SDS011;58618;47.490;8.736;2024-03-17T01:04:05;4.65;;;2.28;;
70953;SDS011;58618;47.490;8.736;2024-03-17T01:06:54;5.77;;;2.10;;
70953;SDS011;58618;47.490;8.736;2024-03-17T01:09:40;6.18;;;2.00;;
70953;SDS011;58618;47.490;8.736;2024-03-17T01:12:27;4.47;;;2.13;;
70953;SDS011;58618;47.490;8.736;2024-03-17T01:15:14;6.00;;;2.70;;
70953;SDS011;58618;47.490;8.736;2024-03-17T01:18:02;4.40;;;2.03;;
70953;SDS011;58618;47.490;8.736;2024-03-17T01:20:50;6.03;;;2.20;;
70953;SDS011;58618;47.490;8.736;2024-03-17T01:23:38;4.07;;;2.30;;
70953;SDS011;58618;47.490;8.736;2024-03-17T01:26:25;6.57;;;2.30;;
70953;SDS011;58618;47.490;8.736;2024-03-17T01:29:12;6.30;;;2.80;;
70953;SDS011;58618;47.490;8.736;2024-03-17T01:31:59;7.20;;;2.88;;
70953;SDS011;58618;47.490;8.736;2024-03-17T01:34:46;5.40;;;2.97;;
70953;SDS011;58618;47.490;8.736;2024-03-17T01:37:34;11.30;;;3.05;;
70953;SDS011;58618;47.490;8.736;2024-03-17T01:40:21;7.35;;;2.90;;
70953;SDS011;58618;47.490;8.736;2024-03-17T01:43:09;4.32;;;1.92;;
70953;SDS011;58618;47.490;8.736;2024-03-17T01:45:57;6.40;;;2.00;;
70953;SDS011;58618;47.490;8.736;2024-03-17T01:48:46;4.10;;;1.90;;
70953;SDS011;58618;47.490;8.736;2024-03-17T01:51:33;6.60;;;1.90;;
70953;SDS011;58618;47.490;8.736;2024-03-17T01:54:19;3.45;;;1.58;;
70953;SDS011;58618;47.490;8.736;2024-03-17T01:57:09;3.95;;;1.95;;
70953;SDS011;58618;47.490;8.736;2024-03-17T01:59:56;6.28;;;2.05;;
70953;SDS011;58618;47.490;8.736;2024-03-17T02:02:45;3.93;;;2.30;;
70953;SDS011;58618;47.490;8.736;2024-03-17T02:05:31;6.20;;;2.10;;
70953;SDS011;58618;47.490;8.736;2024-03-17T02:08:19;3.40;;;1.80;;
70953;SDS011;58618;47.490;8.736;2024-03-17T02:11:08;5.43;;;2.00;;
70953;SDS011;58618;47.490;8.736;2024-03-17T02:14:15;1.65;;;1.40;;
70953;SDS011;58618;47.490;8.736;2024-03-17T02:17:03;2.80;;;1.57;;
70953;SDS011;58618;47.490;8.736;2024-03-17T02:19:50;2.95;;;1.70;;
70953;SDS011;58618;47.490;8.736;2024-03-17T02:22:38;5.47;;;1.50;;
70953;SDS011;58618;47.490;8.736;2024-03-17T02:25:26;4.80;;;1.75;;
70953;SDS011;58618;47.490;8.736;2024-03-17T02:28:12;7.57;;;1.58;;
70953;SDS011;58618;47.490;8.736;2024-03-17T02:30:59;3.90;;;1.80;;
70953;SDS011;58618;47.490;8.736;2024-03-17T02:33:46;4.32;;;1.60;;
70953;SDS011;58618;47.490;8.736;2024-03-17T02:36:33;5.60;;;1.75;;
70953;SDS011;58618;47.490;8.736;2024-03-17T02:39:21;3.58;;;1.60;;
70953;SDS011;58618;47.490;8.736;2024-03-17T02:42:24;7.00;;;1.70;;
70953;SDS011;58618;47.490;8.736;2024-03-17T02:45:12;5.40;;;1.90;;
70953;SDS011;58618;47.490;8.736;2024-03-17T02:47:59;9.27;;;2.00;;
70953;SDS011;58618;47.490;8.736;2024-03-17T02:50:46;4.13;;;1.83;;
70953;SDS011;58618;47.490;8.736;2024-03-17T02:53:34;3.97;;;1.80;;
70953;SDS011;58618;47.490;8.736;2024-03-17T02:56:22;2.78;;;1.70;;
70953;SDS011;58618;47.490;8.736;2024-03-17T02:59:10;4.10;;;1.67;;
70953;SDS011;58618;47.490;8.736;2024-03-17T03:01:57;2.45;;;1.73;;
70953;SDS011;58618;47.490;8.736;2024-03-17T03:04:45;7.93;;;1.77;;
70953;SDS011;58618;47.490;8.736;2024-03-17T03:07:32;4.07;;;1.60;;
70953;SDS011;58618;47.490;8.736;2024-03-17T03:10:20;4.63;;;2.03;;
70953;SDS011;58618;47.490;8.736;2024-03-17T03:13:09;3.37;;;1.40;;
70953;SDS011;58618;47.490;8.736;2024-03-17T03:15:56;2.20;;;1.50;;
70953;SDS011;58618;47.490;8.736;2024-03-17T03:18:44;3.17;;;1.92;;
70953;SDS011;58618;47.490;8.736;2024-03-17T03:21:31;6.28;;;1.65;;
70953;SDS011;58618;47.490;8.736;2024-03-17T03:24:19;2.58;;;1.40;;
70953;SDS011;58618;47.490;8.736;2024-03-17T03:27:06;3.00;;;1.40;;
70953;SDS011;58618;47.490;8.736;2024-03-17T03:29:55;4.70;;;1.60;;
70953;SDS011;58618;47.490;8.736;2024-03-17T03:32:45;2.30;;;1.50;;
70953;SDS011;58618;47.490;8.736;2024-03-17T03:35:33;2.00;;;1.30;;
70953;SDS011;58618;47.490;8.736;2024-03-17T03:38:21;3.75;;;1.48;;
70953;SDS011;58618;47.490;8.736;2024-03-17T03:41:09;2.57;;;1.47;;
70953;SDS011;58618;47.490;8.736;2024-03-17T03:44:00;2.33;;;1.13;;
70953;SDS011;58618;47.490;8.736;2024-03-17T03:46:48;5.70;;;1.55;;
70953;SDS011;58618;47.490;8.736;2024-03-17T03:49:36;2.78;;;1.27;;
70953;SDS011;58618;47.490;8.736;2024-03-17T03:52:23;4.30;;;1.67;;
70953;SDS011;58618;47.490;8.736;2024-03-17T03:55:11;7.63;;;2.27;;
70953;SDS011;58618;47.490;8.736;2024-03-17T03:58:00;5.25;;;1.85;;
70953;SDS011;58618;47.490;8.736;2024-03-17T04:00:49;2.80;;;1.55;;
70953;SDS011;58618;47.490;8.736;2024-03-17T04:03:38;3.35;;;1.30;;
70953;SDS011;58618;47.490;8.736;2024-03-17T04:06:25;2.17;;;1.50;;
70953;SDS011;58618;47.490;8.736;2024-03-17T04:09:13;2.30;;;1.70;;
70953;SDS011;58618;47.490;8.736;2024-03-17T04:12:00;2.47;;;1.45;;
70953;SDS011;58618;47.490;8.736;2024-03-17T04:14:48;4.75;;;1.58;;
70953;SDS011;58618;47.490;8.736;2024-03-17T04:17:39;2.63;;;1.30;;
70953;SDS011;58618;47.490;8.736;2024-03-17T04:20:29;4.82;;;1.65;;
70953;SDS011;58618;47.490;8.736;2024-03-17T04:23:16;3.03;;;1.70;;
70953;SDS011;58618;47.490;8.736;2024-03-17T04:26:04;5.25;;;1.83;;
70953;SDS011;58618;47.490;8.736;2024-03-17T04:28:53;4.53;;;1.80;;
70953;SDS011;58618;47.490;8.736;2024-03-17T04:31:40;3.75;;;1.50;;
70953;SDS011;58618;47.490;8.736;2024-03-17T04:34:28;4.45;;;1.77;;
70953;SDS011;58618;47.490;8.736;2024-03-17T04:37:16;2.57;;;1.70;;
70953;SDS011;58618;47.490;8.736;2024-03-17T04:40:04;2.05;;;1.55;;
70953;SDS011;58618;47.490;8.736;2024-03-17T04:42:55;3.17;;;1.55;;
70953;SDS011;58618;47.490;8.736;2024-03-17T04:45:42;4.63;;;1.70;;
70953;SDS011;58618;47.490;8.736;2024-03-17T04:48:30;3.60;;;1.67;;
70953;SDS011;58618;47.490;8.736;2024-03-17T04:51:18;3.10;;;1.50;;
70953;SDS011;58618;47.490;8.736;2024-03-17T04:54:07;3.10;;;1.50;;
70953;SDS011;58618;47.490;8.736;2024-03-17T04:56:54;3.50;;;1.30;;
70953;SDS011;58618;47.490;8.736;2024-03-17T04:59:42;4.82;;;1.55;;
70953;SDS011;58618;47.490;8.736;2024-03-17T05:02:29;3.33;;;1.77;;
70953;SDS011;58618;47.490;8.736;2024-03-17T05:05:18;3.13;;;1.53;;
70953;SDS011;58618;47.490;8.736;2024-03-17T05:08:05;3.85;;;1.65;;
70953;SDS011;58618;47.490;8.736;2024-03-17T05:10:56;2.20;;;1.40;;
70953;SDS011;58618;47.490;8.736;2024-03-17T05:13:44;5.40;;;1.70;;
70953;SDS011;58618;47.490;8.736;2024-03-17T05:16:32;5.90;;;1.67;;
70953;SDS011;58618;47.490;8.736;2024-03-17T05:19:19;2.13;;;1.50;;
70953;SDS011;58618;47.490;8.736;2024-03-17T05:22:06;4.10;;;1.90;;
70953;SDS011;58618;47.490;8.736;2024-03-17T05:24:53;2.17;;;1.75;;
70953;SDS011;58618;47.490;8.736;2024-03-17T05:27:42;5.28;;;1.95;;
70953;SDS011;58618;47.490;8.736;2024-03-17T05:30:30;2.63;;;1.80;;
70953;SDS011;58618;47.490;8.736;2024-03-17T05:33:18;2.50;;;1.50;;
70953;SDS011;58618;47.490;8.736;2024-03-17T05:36:07;3.05;;;1.80;;
70953;SDS011;58618;47.490;8.736;2024-03-17T05:38:54;4.05;;;1.70;;
70953;SDS011;58618;47.490;8.736;2024-03-17T05:41:41;3.53;;;1.63;;
70953;SDS011;58618;47.490;8.736;2024-03-17T05:44:31;4.70;;;1.90;;
70953;SDS011;58618;47.490;8.736;2024-03-17T05:47:35;4.33;;;1.77;;
70953;SDS011;58618;47.490;8.736;2024-03-17T05:50:22;2.63;;;1.60;;
70953;SDS011;58618;47.490;8.736;2024-03-17T05:53:09;3.15;;;2.10;;
70953;SDS011;58618;47.490;8.736;2024-03-17T05:55:58;2.90;;;1.65;;
70953;SDS011;58618;47.490;8.736;2024-03-17T05:58:45;5.43;;;2.10;;
70953;SDS011;58618;47.490;8.736;2024-03-17T06:01:35;3.57;;;1.73;;
70953;SDS011;58618;47.490;8.736;2024-03-17T06:04:23;2.40;;;1.75;;
70953;SDS011;58618;47.490;8.736;2024-03-17T06:07:10;3.30;;;1.80;;
70953;SDS011;58618;47.490;8.736;2024-03-17T06:09:58;3.65;;;1.95;;
70953;SDS011;58618;47.490;8.736;2024-03-17T06:12:45;2.78;;;1.67;;
70953;SDS011;58618;47.490;8.736;2024-03-17T06:15:32;3.10;;;1.83;;
70953;SDS011;58618;47.490;8.736;2024-03-17T06:18:22;2.22;;;1.70;;
70953;SDS011;58618;47.490;8.736;2024-03-17T06:21:10;5.25;;;2.08;;
70953;SDS011;58618;47.490;8.736;2024-03-17T06:23:57;4.45;;;1.60;;
70953;SDS011;58618;47.490;8.736;2024-03-17T06:26:44;4.10;;;1.80;;
70953;SDS011;58618;47.490;8.736;2024-03-17T06:29:33;4.43;;;1.93;;
70953;SDS011;58618;47.490;8.736;2024-03-17T06:32:20;3.38;;;1.92;;
70953;SDS011;58618;47.490;8.736;2024-03-17T06:35:09;5.47;;;2.60;;
70953;SDS011;58618;47.490;8.736;2024-03-17T06:37:58;4.05;;;2.30;;
70953;SDS011;58618;47.490;8.736;2024-03-17T06:40:49;5.10;;;2.42;;
70953;SDS011;58618;47.490;8.736;2024-03-17T06:43:37;3.87;;;2.13;;
70953;SDS011;58618;47.490;8.736;2024-03-17T06:46:25;5.35;;;2.20;;
70953;SDS011;58618;47.490;8.736;2024-03-17T06:49:12;3.22;;;2.00;;
70953;SDS011;58618;47.490;8.736;2024-03-17T06:52:01;2.67;;;1.65;;
70953;SDS011;58618;47.490;8.736;2024-03-17T06:54:49;4.50;;;1.90;;
70953;SDS011;58618;47.490;8.736;2024-03-17T06:57:36;3.23;;;1.70;;
70953;SDS011;58618;47.490;8.736;2024-03-17T07:00:24;5.30;;;2.25;;
70953;SDS011;58618;47.490;8.736;2024-03-17T07:03:11;4.55;;;1.90;;
70953;SDS011;58618;47.490;8.736;2024-03-17T07:05:59;3.75;;;2.22;;
70953;SDS011;58618;47.490;8.736;2024-03-17T07:08:50;4.35;;;2.08;;
70953;SDS011;58618;47.490;8.736;2024-03-17T07:11:37;3.37;;;2.07;;
70953;SDS011;58618;47.490;8.736;2024-03-17T07:14:25;4.60;;;2.38;;
70953;SDS011;58618;47.490;8.736;2024-03-17T07:17:12;6.53;;;2.13;;
70953;SDS011;58618;47.490;8.736;2024-03-17T07:19:59;3.67;;;2.03;;
70953;SDS011;58618;47.490;8.736;2024-03-17T07:22:48;4.72;;;2.20;;
70953;SDS011;58618;47.490;8.736;2024-03-17T07:25:37;3.43;;;2.37;;
70953;SDS011;58618;47.490;8.736;2024-03-17T07:28:25;5.45;;;2.25;;
70953;SDS011;58618;47.490;8.736;2024-03-17T07:31:12;4.68;;;2.10;;
70953;SDS011;58618;47.490;8.736;2024-03-17T07:34:00;4.43;;;2.40;;
70953;SDS011;58618;47.490;8.736;2024-03-17T07:36:47;5.20;;;2.10;;
70953;SDS011;58618;47.490;8.736;2024-03-17T07:39:34;2.97;;;2.00;;
70953;SDS011;58618;47.490;8.736;2024-03-17T07:42:23;2.22;;;2.00;;
70953;SDS011;58618;47.490;8.736;2024-03-17T07:45:10;5.65;;;2.20;;
70953;SDS011;58618;47.490;8.736;2024-03-17T07:47:58;4.68;;;2.13;;
70953;SDS011;58618;47.490;8.736;2024-03-17T07:50:53;7.25;;;2.00;;
70953;SDS011;58618;47.490;8.736;2024-03-17T07:53:42;2.63;;;1.50;;
70953;SDS011;58618;47.490;8.736;2024-03-17T07:56:31;2.20;;;1.70;;
70953;SDS011;58618;47.490;8.736;2024-03-17T07:59:20;3.95;;;1.65;;
70953;SDS011;58618;47.490;8.736;2024-03-17T08:02:07;2.83;;;1.70;;
70953;SDS011;58618;47.490;8.736;2024-03-17T08:04:55;5.18;;;2.00;;
70953;SDS011;58618;47.490;8.736;2024-03-17T08:07:42;4.37;;;1.73;;
70953;SDS011;58618;47.490;8.736;2024-03-17T08:10:31;2.97;;;2.00;;
70953;SDS011;58618;47.490;8.736;2024-03-17T08:13:18;4.43;;;2.05;;
70953;SDS011;58618;47.490;8.736;2024-03-17T08:16:07;4.32;;;2.22;;
70953;SDS011;58618;47.490;8.736;2024-03-17T08:18:56;3.72;;;1.95;;
70953;SDS011;58618;47.490;8.736;2024-03-17T08:21:44;3.80;;;2.00;;
70953;SDS011;58618;47.490;8.736;2024-03-17T08:24:31;4.72;;;2.03;;
70953;SDS011;58618;47.490;8.736;2024-03-17T08:27:18;4.43;;;1.73;;
70953;SDS011;58618;47.490;8.736;2024-03-17T08:30:06;3.63;;;1.70;;
70953;SDS011;58618;47.490;8.736;2024-03-17T08:32:57;4.88;;;1.75;;
70953;SDS011;58618;47.490;8.736;2024-03-17T08:35:52;2.43;;;1.60;;
70953;SDS011;58618;47.490;8.736;2024-03-17T08:38:40;4.72;;;2.00;;
70953;SDS011;58618;47.490;8.736;2024-03-17T08:41:27;6.53;;;2.05;;
70953;SDS011;58618;47.490;8.736;2024-03-17T08:44:16;4.75;;;2.08;;
70953;SDS011;58618;47.490;8.736;2024-03-17T08:47:03;3.92;;;2.13;;
70953;SDS011;58618;47.490;8.736;2024-03-17T08:49:52;5.00;;;1.80;;
70953;SDS011;58618;47.490;8.736;2024-03-17T08:52:40;5.78;;;2.10;;
70953;SDS011;58618;47.490;8.736;2024-03-17T08:55:27;4.05;;;1.90;;
70953;SDS011;58618;47.490;8.736;2024-03-17T08:58:15;4.78;;;1.70;;
70953;SDS011;58618;47.490;8.736;2024-03-17T09:01:03;4.40;;;1.80;;
70953;SDS011;58618;47.490;8.736;2024-03-17T09:03:52;2.23;;;1.80;;
70953;SDS011;58618;47.490;8.736;2024-03-17T09:06:43;4.45;;;1.85;;
70953;SDS011;58618;47.490;8.736;2024-03-17T09:09:31;3.28;;;1.85;;
70953;SDS011;58618;47.490;8.736;2024-03-17T09:12:18;4.38;;;1.80;;
70953;SDS011;58618;47.490;8.736;2024-03-17T09:15:06;3.22;;;1.90;;
70953;SDS011;58618;47.490;8.736;2024-03-17T09:17:54;4.87;;;1.73;;
70953;SDS011;58618;47.490;8.736;2024-03-17T09:20:41;4.22;;;1.63;;
70953;SDS011;58618;47.490;8.736;2024-03-17T09:23:30;5.80;;;1.67;;
70953;SDS011;58618;47.490;8.736;2024-03-17T09:26:20;2.50;;;1.52;;
70953;SDS011;58618;47.490;8.736;2024-03-17T09:29:07;2.80;;;1.45;;
70953;SDS011;58618;47.490;8.736;2024-03-17T09:31:55;2.70;;;1.30;;
70953;SDS011;58618;47.490;8.736;2024-03-17T09:34:42;2.35;;;1.20;;
70953;SDS011;58618;47.490;8.736;2024-03-17T09:37:29;2.58;;;1.17;;
70953;SDS011;58618;47.490;8.736;2024-03-17T09:40:18;5.30;;;1.30;;
70953;SDS011;58618;47.490;8.736;2024-03-17T09:43:07;1.70;;;1.20;;
70953;SDS011;58618;47.490;8.736;2024-03-17T09:45:58;3.77;;;1.53;;
70953;SDS011;58618;47.490;8.736;2024-03-17T09:48:46;4.10;;;1.20;;
70953;SDS011;58618;47.490;8.736;2024-03-17T09:51:34;3.40;;;1.40;;
70953;SDS011;58618;47.490;8.736;2024-03-17T09:54:22;3.40;;;1.38;;
70953;SDS011;58618;47.490;8.736;2024-03-17T09:57:14;2.88;;;1.50;;
70953;SDS011;58618;47.490;8.736;2024-03-17T10:00:04;2.03;;;1.20;;
70953;SDS011;58618;47.490;8.736;2024-03-17T10:02:58;2.78;;;1.40;;
70953;SDS011;58618;47.490;8.736;2024-03-17T10:05:46;3.60;;;1.45;;
70953;SDS011;58618;47.490;8.736;2024-03-17T10:08:33;2.53;;;1.23;;
70953;SDS011;58618;47.490;8.736;2024-03-17T10:11:21;2.22;;;1.20;;
70953;SDS011;58618;47.490;8.736;2024-03-17T10:14:12;2.10;;;1.30;;
70953;SDS011;58618;47.490;8.736;2024-03-17T10:17:03;4.75;;;1.55;;
70953;SDS011;58618;47.490;8.736;2024-03-17T10:19:52;4.78;;;1.40;;
70953;SDS011;58618;47.490;8.736;2024-03-17T10:22:39;3.38;;;1.48;;
70953;SDS011;58618;47.490;8.736;2024-03-17T10:25:27;4.22;;;1.45;;
70953;SDS011;58618;47.490;8.736;2024-03-17T10:28:16;5.43;;;1.90;;
70953;SDS011;58618;47.490;8.736;2024-03-17T10:31:06;3.10;;;1.67;;
70953;SDS011;58618;47.490;8.736;2024-03-17T10:34:00;2.67;;;0.95;;
70953;SDS011;58618;47.490;8.736;2024-03-17T10:36:48;2.65;;;1.60;;
70953;SDS011;58618;47.490;8.736;2024-03-17T10:39:35;2.83;;;1.38;;
70953;SDS011;58618;47.490;8.736;2024-03-17T10:42:24;3.50;;;1.70;;
70953;SDS011;58618;47.490;8.736;2024-03-17T10:45:14;4.50;;;1.83;;
70953;SDS011;58618;47.490;8.736;2024-03-17T10:48:03;2.28;;;1.30;;
70953;SDS011;58618;47.490;8.736;2024-03-17T10:50:54;5.05;;;1.38;;
70953;SDS011;58618;47.490;8.736;2024-03-17T10:53:46;2.42;;;1.48;;
70953;SDS011;58618;47.490;8.736;2024-03-17T10:56:35;3.90;;;1.90;;
70953;SDS011;58618;47.490;8.736;2024-03-17T10:59:28;3.97;;;1.50;;
70953;SDS011;58618;47.490;8.736;2024-03-17T11:02:26;4.43;;;1.70;;
70953;SDS011;58618;47.490;8.736;2024-03-17T11:05:16;2.13;;;1.40;;
70953;SDS011;58618;47.490;8.736;2024-03-17T11:08:07;3.17;;;1.83;;
70953;SDS011;58618;47.490;8.736;2024-03-17T11:11:03;5.10;;;2.40;;
70953;SDS011;58618;47.490;8.736;2024-03-17T11:13:51;2.60;;;1.52;;
70953;SDS011;58618;47.490;8.736;2024-03-17T11:16:39;5.25;;;1.65;;
70953;SDS011;58618;47.490;8.736;2024-03-17T11:19:27;3.83;;;1.90;;
70953;SDS011;58618;47.490;8.736;2024-03-17T11:25:39;5.40;;;2.10;;
70953;SDS011;58618;47.490;8.736;2024-03-17T11:31:40;4.60;;;2.40;;
70953;SDS011;58618;47.490;8.736;2024-03-17T11:34:32;4.82;;;2.50;;
70953;SDS011;58618;47.490;8.736;2024-03-17T11:40:30;5.47;;;3.13;;
70953;SDS011;58618;47.490;8.736;2024-03-17T11:43:16;4.45;;;3.15;;
70953;SDS011;58618;47.490;8.736;2024-03-17T11:46:04;5.45;;;3.25;;
70953;SDS011;58618;47.490;8.736;2024-03-17T11:48:50;3.95;;;3.03;;
70953;SDS011;58618;47.490;8.736;2024-03-17T11:51:38;5.47;;;3.35;;
70953;SDS011;58618;47.490;8.736;2024-03-17T11:54:27;6.17;;;3.17;;
70953;SDS011;58618;47.490;8.736;2024-03-17T11:57:19;6.47;;;3.50;;
70953;SDS011;58618;47.490;8.736;2024-03-17T12:00:15;4.45;;;3.13;;
70953;SDS011;58618;47.490;8.736;2024-03-17T12:03:08;6.75;;;3.47;;
70953;SDS011;58618;47.490;8.736;2024-03-17T12:05:57;5.72;;;3.25;;
70953;SDS011;58618;47.490;8.736;2024-03-17T12:08:44;6.40;;;3.17;;
70953;SDS011;58618;47.490;8.736;2024-03-17T12:11:32;4.97;;;3.40;;
70953;SDS011;58618;47.490;8.736;2024-03-17T12:14:19;4.82;;;3.35;;
70953;SDS011;58618;47.490;8.736;2024-03-17T12:17:07;5.22;;;3.65;;
70953;SDS011;58618;47.490;8.736;2024-03-17T12:19:56;5.45;;;3.47;;
70953;SDS011;58618;47.490;8.736;2024-03-17T12:22:42;4.93;;;2.90;;
70953;SDS011;58618;47.490;8.736;2024-03-17T12:25:29;6.68;;;3.05;;
70953;SDS011;58618;47.490;8.736;2024-03-17T12:28:17;5.13;;;2.70;;
70953;SDS011;58618;47.490;8.736;2024-03-17T12:31:05;5.45;;;3.17;;
70953;SDS011;58618;47.490;8.736;2024-03-17T12:33:51;5.30;;;2.85;;
70953;SDS011;58618;47.490;8.736;2024-03-17T12:36:39;4.13;;;2.43;;
70953;SDS011;58618;47.490;8.736;2024-03-17T12:39:28;5.18;;;2.72;;
70953;SDS011;58618;47.490;8.736;2024-03-17T12:42:22;6.47;;;2.50;;
70953;SDS011;58618;47.490;8.736;2024-03-17T12:45:11;5.53;;;2.17;;
70953;SDS011;58618;47.490;8.736;2024-03-17T12:47:58;3.85;;;2.35;;
70953;SDS011;58618;47.490;8.736;2024-03-17T12:50:45;3.67;;;2.27;;
70953;SDS011;58618;47.490;8.736;2024-03-17T12:53:33;4.15;;;2.80;;
70953;SDS011;58618;47.490;8.736;2024-03-17T12:56:22;5.35;;;2.53;;
70953;SDS011;58618;47.490;8.736;2024-03-17T12:59:36;5.63;;;2.53;;
70953;SDS011;58618;47.490;8.736;2024-03-17T13:02:43;4.97;;;2.95;;
70953;SDS011;58618;47.490;8.736;2024-03-17T13:05:31;5.97;;;2.70;;
70953;SDS011;58618;47.490;8.736;2024-03-17T13:08:19;4.75;;;2.85;;
70953;SDS011;58618;47.490;8.736;2024-03-17T13:11:07;3.80;;;2.22;;
70953;SDS011;58618;47.490;8.736;2024-03-17T13:13:55;5.43;;;2.30;;
70953;SDS011;58618;47.490;8.736;2024-03-17T13:16:43;5.03;;;2.08;;
70953;SDS011;58618;47.490;8.736;2024-03-17T13:19:33;5.03;;;2.50;;
70953;SDS011;58618;47.490;8.736;2024-03-17T13:22:23;5.05;;;2.60;;
70953;SDS011;58618;47.490;8.736;2024-03-17T13:25:14;3.80;;;2.40;;
70953;SDS011;58618;47.490;8.736;2024-03-17T13:28:03;4.07;;;2.30;;
70953;SDS011;58618;47.490;8.736;2024-03-17T13:30:52;5.30;;;2.40;;
70953;SDS011;58618;47.490;8.736;2024-03-17T13:33:40;5.53;;;2.43;;
70953;SDS011;58618;47.490;8.736;2024-03-17T13:36:28;6.40;;;2.95;;
70953;SDS011;58618;47.490;8.736;2024-03-17T13:39:17;8.93;;;2.80;;
70953;SDS011;58618;47.490;8.736;2024-03-17T13:42:06;5.22;;;2.60;;
70953;SDS011;58618;47.490;8.736;2024-03-17T13:44:55;6.43;;;2.60;;
70953;SDS011;58618;47.490;8.736;2024-03-17T13:47:45;5.33;;;2.57;;
70953;SDS011;58618;47.490;8.736;2024-03-17T13:50:34;6.78;;;2.67;;
70953;SDS011;58618;47.490;8.736;2024-03-17T13:53:23;4.57;;;2.30;;
70953;SDS011;58618;47.490;8.736;2024-03-17T13:56:10;6.20;;;2.17;;
70953;SDS011;58618;47.490;8.736;2024-03-17T13:58:58;5.22;;;2.20;;
70953;SDS011;58618;47.490;8.736;2024-03-17T14:01:46;3.87;;;2.00;;
70953;SDS011;58618;47.490;8.736;2024-03-17T14:04:35;5.80;;;2.00;;
70953;SDS011;58618;47.490;8.736;2024-03-17T14:07:22;9.57;;;2.10;;
70953;SDS011;58618;47.490;8.736;2024-03-17T14:10:11;2.65;;;1.40;;
70953;SDS011;58618;47.490;8.736;2024-03-17T14:13:00;3.90;;;1.65;;
70953;SDS011;58618;47.490;8.736;2024-03-17T14:15:47;4.73;;;1.60;;
70953;SDS011;58618;47.490;8.736;2024-03-17T14:18:35;3.45;;;1.60;;
70953;SDS011;58618;47.490;8.736;2024-03-17T14:21:22;4.47;;;1.77;;
70953;SDS011;58618;47.490;8.736;2024-03-17T14:24:09;5.82;;;1.75;;
70953;SDS011;58618;47.490;8.736;2024-03-17T14:26:58;3.33;;;1.58;;
70953;SDS011;58618;47.490;8.736;2024-03-17T14:29:45;2.80;;;1.47;;
70953;SDS011;58618;47.490;8.736;2024-03-17T14:32:32;2.83;;;1.63;;
70953;SDS011;58618;47.490;8.736;2024-03-17T14:35:20;3.92;;;1.60;;
70953;SDS011;58618;47.490;8.736;2024-03-17T14:38:08;2.22;;;1.42;;
70953;SDS011;58618;47.490;8.736;2024-03-17T14:40:56;3.33;;;1.50;;
70953;SDS011;58618;47.490;8.736;2024-03-17T14:43:44;3.40;;;1.20;;
70953;SDS011;58618;47.490;8.736;2024-03-17T14:46:32;3.08;;;1.30;;
70953;SDS011;58618;47.490;8.736;2024-03-17T14:49:19;3.78;;;1.65;;
70953;SDS011;58618;47.490;8.736;2024-03-17T14:52:06;4.30;;;1.50;;
70953;SDS011;58618;47.490;8.736;2024-03-17T14:54:55;4.25;;;1.73;;
70953;SDS011;58618;47.490;8.736;2024-03-17T14:57:42;3.33;;;1.67;;
70953;SDS011;58618;47.490;8.736;2024-03-17T15:00:31;4.45;;;1.50;;
70953;SDS011;58618;47.490;8.736;2024-03-17T15:03:19;3.10;;;1.42;;
70953;SDS011;58618;47.490;8.736;2024-03-17T15:06:09;3.35;;;1.35;;
70953;SDS011;58618;47.490;8.736;2024-03-17T15:08:58;2.45;;;1.50;;
70953;SDS011;58618;47.490;8.736;2024-03-17T15:11:46;2.13;;;1.20;;
70953;SDS011;58618;47.490;8.736;2024-03-17T15:14:34;4.28;;;2.22;;
70953;SDS011;58618;47.490;8.736;2024-03-17T15:17:24;2.42;;;1.20;;
70953;SDS011;58618;47.490;8.736;2024-03-17T15:20:13;2.45;;;1.40;;
70953;SDS011;58618;47.490;8.736;2024-03-17T15:23:03;4.53;;;1.50;;
70953;SDS011;58618;47.490;8.736;2024-03-17T15:25:51;2.40;;;1.30;;
70953;SDS011;58618;47.490;8.736;2024-03-17T15:28:39;3.78;;;1.92;;
70953;SDS011;58618;47.490;8.736;2024-03-17T15:31:27;2.92;;;1.60;;
70953;SDS011;58618;47.490;8.736;2024-03-17T15:34:16;5.03;;;1.75;;
70953;SDS011;58618;47.490;8.736;2024-03-17T15:37:03;3.47;;;1.50;;
70953;SDS011;58618;47.490;8.736;2024-03-17T15:39:52;2.20;;;1.33;;
70953;SDS011;58618;47.490;8.736;2024-03-17T15:42:41;5.75;;;2.33;;
70953;SDS011;58618;47.490;8.736;2024-03-17T15:45:30;3.05;;;1.20;;
70953;SDS011;58618;47.490;8.736;2024-03-17T15:48:18;3.20;;;1.40;;
70953;SDS011;58618;47.490;8.736;2024-03-17T15:51:07;2.83;;;1.50;;
70953;SDS011;58618;47.490;8.736;2024-03-17T15:53:54;3.97;;;1.67;;
70953;SDS011;58618;47.490;8.736;2024-03-17T15:56:42;3.95;;;1.70;;
70953;SDS011;58618;47.490;8.736;2024-03-17T15:59:29;2.15;;;1.52;;
70953;SDS011;58618;47.490;8.736;2024-03-17T16:02:16;3.10;;;1.40;;
70953;SDS011;58618;47.490;8.736;2024-03-17T16:05:04;3.70;;;1.55;;
70953;SDS011;58618;47.490;8.736;2024-03-17T16:07:58;2.40;;;1.20;;
70953;SDS011;58618;47.490;8.736;2024-03-17T16:10:45;3.80;;;1.20;;
70953;SDS011;58618;47.490;8.736;2024-03-17T16:13:33;3.30;;;1.60;;
70953;SDS011;58618;47.490;8.736;2024-03-17T16:16:21;1.85;;;1.42;;
70953;SDS011;58618;47.490;8.736;2024-03-17T16:19:11;3.83;;;1.30;;
70953;SDS011;58618;47.490;8.736;2024-03-17T16:21:58;2.97;;;1.20;;
70953;SDS011;58618;47.490;8.736;2024-03-17T16:24:48;3.97;;;1.48;;
70953;SDS011;58618;47.490;8.736;2024-03-17T16:27:35;2.13;;;1.30;;
70953;SDS011;58618;47.490;8.736;2024-03-17T16:30:22;2.35;;;1.38;;
70953;SDS011;58618;47.490;8.736;2024-03-17T16:33:10;2.63;;;1.20;;
70953;SDS011;58618;47.490;8.736;2024-03-17T16:35:58;2.13;;;1.07;;
70953;SDS011;58618;47.490;8.736;2024-03-17T16:38:46;2.55;;;1.20;;
70953;SDS011;58618;47.490;8.736;2024-03-17T16:41:35;2.95;;;1.10;;
70953;SDS011;58618;47.490;8.736;2024-03-17T16:44:23;3.63;;;1.15;;
70953;SDS011;58618;47.490;8.736;2024-03-17T16:47:26;2.05;;;1.10;;
70953;SDS011;58618;47.490;8.736;2024-03-17T16:50:16;2.23;;;1.23;;
70953;SDS011;58618;47.490;8.736;2024-03-17T16:53:03;3.25;;;1.30;;
70953;SDS011;58618;47.490;8.736;2024-03-17T16:55:51;3.10;;;1.30;;
70953;SDS011;58618;47.490;8.736;2024-03-17T16:58:39;2.95;;;1.15;;
70953;SDS011;58618;47.490;8.736;2024-03-17T17:01:27;2.42;;;1.20;;
70953;SDS011;58618;47.490;8.736;2024-03-17T17:04:14;5.47;;;1.20;;
70953;SDS011;58618;47.490;8.736;2024-03-17T17:07:02;3.53;;;1.50;;